Time;durP1;ratioP1;P1;durP2;ratioP2;P2;SDS_P1;SDS_P2;PMS_P1;PMS_P2;Temp;Humidity;BMP_temperature;BMP_pressure;BME280_temperature;BME280_humidity;BME280_pressure;Samples;Min_cycle;Max_cycle;Signal;HPM_P1;HPM_P2
2023/05/17 00:00:52;;;;;;;4.67;2.60;;;7.00;99.90;;;;;;476933;248;27925;-81
2023/05/17 00:02:53;;;;;;;4.37;2.60;;;7.00;99.90;;;;;;490696;243;27930;-80
2023/05/17 00:04:54;;;;;;;5.00;2.33;;;7.00;99.90;;;;;;476893;248;27987;-80
2023/05/17 00:06:56;;;;;;;5.40;2.90;;;6.90;99.90;;;;;;490711;241;27613;-82
2023/05/17 00:08:57;;;;;;;1.90;1.80;;;6.90;99.90;;;;;;476912;248;28079;-84
2023/05/17 00:10:58;;;;;;;5.80;2.40;;;6.90;99.90;;;;;;490759;241;28144;-79
2023/05/17 00:12:59;;;;;;;3.60;2.43;;;6.90;99.90;;;;;;490743;243;27921;-80
2023/05/17 00:15:01;;;;;;;6.90;2.60;;;7.00;99.90;;;;;;490709;243;27920;-82
2023/05/17 00:17:02;;;;;;;3.27;2.20;;;7.10;99.90;;;;;;476922;250;27989;-82
2023/05/17 00:19:03;;;;;;;5.33;2.40;;;7.10;99.90;;;;;;490716;241;28018;-82
2023/05/17 00:21:04;;;;;;;4.03;2.40;;;7.00;99.90;;;;;;476938;248;28059;-81
2023/05/17 00:23:06;;;;;;;7.43;2.60;;;7.10;99.90;;;;;;490676;242;27570;-80
2023/05/17 00:25:07;;;;;;;4.13;2.73;;;7.10;99.90;;;;;;476886;248;27966;-81
2023/05/17 00:27:09;;;;;;;3.40;2.90;;;7.10;99.90;;;;;;490703;241;27959;-81
2023/05/17 00:29:09;;;;;;;4.13;2.40;;;7.20;99.90;;;;;;476909;248;28007;-80
2023/05/17 00:31:11;;;;;;;2.50;2.30;;;7.20;99.90;;;;;;490692;241;27904;-80
2023/05/17 00:33:12;;;;;;;4.73;2.17;;;7.30;99.90;;;;;;476956;248;27990;-83
2023/05/17 00:35:13;;;;;;;5.53;2.80;;;7.40;99.90;;;;;;490700;241;28126;-81
2023/05/17 00:37:14;;;;;;;6.90;2.50;;;7.40;99.90;;;;;;490707;241;27747;-83
2023/05/17 00:39:16;;;;;;;4.63;2.40;;;7.30;99.90;;;;;;476935;246;28040;-81
2023/05/17 00:41:17;;;;;;;6.63;2.60;;;7.10;99.90;;;;;;490684;241;27455;-82
2023/05/17 00:43:18;;;;;;;5.73;2.43;;;7.10;99.90;;;;;;476943;248;28157;-82
2023/05/17 00:45:19;;;;;;;2.93;2.23;;;7.10;99.90;;;;;;490732;241;27869;-80
2023/05/17 00:47:21;;;;;;;4.63;2.20;;;7.00;99.90;;;;;;476971;249;27950;-82
2023/05/17 00:49:22;;;;;;;2.70;2.40;;;7.10;99.90;;;;;;490757;241;27920;-81
2023/05/17 00:51:23;;;;;;;3.87;1.90;;;7.00;99.90;;;;;;476963;248;28016;-79
2023/05/17 00:53:24;;;;;;;2.77;2.53;;;7.00;99.90;;;;;;490722;243;27723;-83
2023/05/17 00:55:26;;;;;;;4.53;2.50;;;7.10;99.90;;;;;;476877;248;27943;-83
2023/05/17 00:57:28;;;;;;;6.27;2.40;;;7.10;99.90;;;;;;490710;241;28472;-79
2023/05/17 00:59:28;;;;;;;5.20;2.70;;;7.10;99.90;;;;;;476926;249;27822;-83
2023/05/17 01:01:29;;;;;;;3.00;2.70;;;7.10;99.90;;;;;;490769;242;28032;-81
2023/05/17 01:03:31;;;;;;;4.23;2.57;;;7.20;99.90;;;;;;476942;248;27981;-83
2023/05/17 01:05:32;;;;;;;4.20;2.50;;;7.30;99.90;;;;;;490726;241;27982;-80
2023/05/17 01:07:33;;;;;;;3.63;2.60;;;7.30;99.90;;;;;;490396;243;27843;-83
2023/05/17 01:09:34;;;;;;;4.50;2.57;;;7.30;99.90;;;;;;476937;248;27865;-81
2023/05/17 01:11:36;;;;;;;4.10;2.80;;;7.40;99.90;;;;;;490775;241;27894;-81
2023/05/17 01:13:37;;;;;;;5.87;3.40;;;7.40;99.90;;;;;;477001;248;27965;-82
2023/05/17 01:15:38;;;;;;;15.43;3.83;;;7.40;99.90;;;;;;490723;242;27936;-81
2023/05/17 01:17:39;;;;;;;4.77;2.70;;;7.40;99.90;;;;;;476939;248;27849;-82
2023/05/17 01:19:41;;;;;;;5.40;2.97;;;7.40;99.90;;;;;;490725;241;27949;-84
2023/05/17 01:21:42;;;;;;;7.33;2.77;;;7.40;99.90;;;;;;476975;248;27964;-81
2023/05/17 01:23:43;;;;;;;6.50;2.97;;;7.40;99.90;;;;;;490758;241;27898;-81
2023/05/17 01:25:45;;;;;;;2.90;2.33;;;7.50;99.90;;;;;;476914;248;28060;-83
2023/05/17 01:27:46;;;;;;;7.20;3.23;;;7.50;99.90;;;;;;490730;241;28004;-83
2023/05/17 01:29:47;;;;;;;3.50;2.30;;;7.40;99.90;;;;;;490744;243;27874;-80
2023/05/17 01:31:48;;;;;;;3.97;2.80;;;7.30;99.90;;;;;;490753;243;27560;-81
2023/05/17 01:33:50;;;;;;;7.07;2.60;;;7.30;99.90;;;;;;490702;243;27873;-82
2023/05/17 01:35:51;;;;;;;6.10;3.10;;;7.20;99.90;;;;;;476889;248;27870;-83
2023/05/17 01:37:52;;;;;;;5.60;2.77;;;7.10;99.90;;;;;;490718;241;27857;-82
2023/05/17 01:39:53;;;;;;;2.63;2.43;;;7.10;99.90;;;;;;476938;248;27576;-81
2023/05/17 01:41:55;;;;;;;7.33;2.60;;;7.10;99.90;;;;;;490701;241;27899;-80
2023/05/17 01:43:56;;;;;;;4.93;3.30;;;7.00;99.90;;;;;;476974;249;27949;-80
2023/05/17 01:45:57;;;;;;;6.00;2.60;;;6.90;99.90;;;;;;490709;241;27946;-81
2023/05/17 01:47:58;;;;;;;3.10;2.50;;;6.80;99.90;;;;;;490734;243;27939;-80
2023/05/17 01:49:59;;;;;;;6.63;3.00;;;6.70;99.90;;;;;;490751;243;27948;-81
2023/05/17 01:52:01;;;;;;;5.73;2.73;;;6.70;99.90;;;;;;476942;248;28049;-81
2023/05/17 01:54:02;;;;;;;3.07;2.37;;;6.60;99.90;;;;;;490761;241;27686;-82
2023/05/17 01:56:06;;;;;;;4.27;2.67;;;6.60;99.90;;;;;;476962;248;27970;-82
2023/05/17 01:58:08;;;;;;;7.40;3.07;;;6.50;99.90;;;;;;490756;241;27819;-80
2023/05/17 02:00:09;;;;;;;6.03;2.80;;;6.50;99.90;;;;;;475964;238;27614;-82
2023/05/17 02:02:10;;;;;;;3.97;2.40;;;6.50;99.90;;;;;;472420;252;28019;-82
2023/05/17 02:04:11;;;;;;;4.03;2.60;;;6.50;99.90;;;;;;472422;252;27718;-79
2023/05/17 02:06:12;;;;;;;9.30;3.00;;;6.50;99.90;;;;;;472493;252;27950;-84
2023/05/17 02:08:14;;;;;;;5.23;2.80;;;6.50;99.90;;;;;;472470;252;27756;-84
2023/05/17 02:10:15;;;;;;;5.60;2.83;;;6.50;99.90;;;;;;472449;252;28059;-79
2023/05/17 02:12:16;;;;;;;6.40;2.30;;;6.40;99.90;;;;;;472473;252;27852;-82
2023/05/17 02:14:18;;;;;;;4.57;3.10;;;6.50;99.90;;;;;;472464;252;27565;-83
2023/05/17 02:16:19;;;;;;;12.73;4.00;;;6.40;99.90;;;;;;472441;252;28015;-83
2023/05/17 02:18:20;;;;;;;4.60;2.67;;;6.40;99.90;;;;;;472408;252;28051;-83
2023/05/17 02:20:21;;;;;;;4.50;2.40;;;6.40;99.90;;;;;;472403;252;27961;-83
2023/05/17 02:22:23;;;;;;;4.83;2.97;;;6.40;99.90;;;;;;472411;252;27927;-83
2023/05/17 02:24:24;;;;;;;3.40;2.60;;;6.30;99.90;;;;;;472419;252;27955;-82
2023/05/17 02:26:26;;;;;;;5.00;2.50;;;6.30;99.90;;;;;;472407;252;28077;-84
2023/05/17 02:28:26;;;;;;;3.87;3.07;;;6.20;99.90;;;;;;472387;252;27615;-82
2023/05/17 02:30:28;;;;;;;3.50;2.90;;;6.10;99.90;;;;;;472395;252;27819;-83
2023/05/17 02:32:29;;;;;;;2.87;2.40;;;6.00;99.90;;;;;;472459;252;28350;-82
2023/05/17 02:34:30;;;;;;;3.33;2.27;;;6.00;99.90;;;;;;472389;252;28828;-83
2023/05/17 02:36:31;;;;;;;9.68;3.05;;;5.90;99.90;;;;;;472484;252;27693;-83
2023/05/17 02:38:33;;;;;;;4.43;2.75;;;5.80;99.90;;;;;;472501;252;27435;-82
2023/05/17 02:40:34;;;;;;;6.00;3.13;;;5.70;99.90;;;;;;472439;251;27482;-80
2023/05/17 02:42:35;;;;;;;5.53;2.85;;;5.70;99.90;;;;;;472410;252;28854;-84
2023/05/17 02:44:36;;;;;;;4.60;2.40;;;5.70;99.90;;;;;;472471;252;27497;-81
2023/05/17 02:46:38;;;;;;;4.07;2.50;;;5.60;99.90;;;;;;472477;252;27573;-83
2023/05/17 02:48:39;;;;;;;5.97;2.93;;;5.60;99.90;;;;;;472482;252;28371;-82
2023/05/17 02:50:40;;;;;;;8.80;3.20;;;5.60;99.90;;;;;;472431;252;28591;-81
2023/05/17 02:52:41;;;;;;;3.57;2.50;;;5.50;99.90;;;;;;472410;252;27571;-84
2023/05/17 02:54:43;;;;;;;4.20;2.70;;;5.50;99.90;;;;;;472417;252;28387;-80
2023/05/17 02:56:44;;;;;;;4.95;2.75;;;5.50;99.90;;;;;;472475;252;28881;-81
2023/05/17 02:58:45;;;;;;;3.97;2.50;;;5.50;99.90;;;;;;472448;252;27487;-81
2023/05/17 03:00:46;;;;;;;3.05;2.65;;;5.40;99.90;;;;;;472399;252;28201;-82
2023/05/17 03:02:48;;;;;;;4.70;2.70;;;5.30;99.90;;;;;;472443;252;27549;-84
2023/05/17 03:04:49;;;;;;;5.78;3.10;;;5.30;99.90;;;;;;472431;252;27561;-83
2023/05/17 03:06:50;;;;;;;6.75;4.05;;;5.30;99.90;;;;;;472448;252;27527;-81
2023/05/17 03:08:51;;;;;;;6.25;3.47;;;5.30;99.90;;;;;;472451;252;27490;-83
2023/05/17 03:10:53;;;;;;;6.20;4.03;;;5.40;99.90;;;;;;472472;252;27474;-80
2023/05/17 03:12:54;;;;;;;4.30;2.80;;;5.40;99.90;;;;;;472458;252;28270;-85
2023/05/17 03:14:55;;;;;;;5.45;3.00;;;5.50;99.90;;;;;;472300;252;27463;-83
2023/05/17 03:16:56;;;;;;;4.65;3.25;;;5.50;99.90;;;;;;472151;251;27490;-80
2023/05/17 03:18:58;;;;;;;5.32;3.10;;;5.50;99.90;;;;;;472488;252;27474;-83
2023/05/17 03:20:59;;;;;;;4.65;3.08;;;5.50;99.90;;;;;;472445;252;27491;-84
2023/05/17 03:23:00;;;;;;;3.80;3.05;;;5.50;99.90;;;;;;472477;252;27556;-83
2023/05/17 03:25:02;;;;;;;4.57;2.80;;;5.50;99.90;;;;;;472449;252;27486;-82
2023/05/17 03:27:03;;;;;;;4.28;3.17;;;5.30;99.90;;;;;;472472;252;27586;-81
2023/05/17 03:29:04;;;;;;;5.67;3.37;;;5.30;99.90;;;;;;472373;252;27595;-81
2023/05/17 03:31:05;;;;;;;6.12;3.05;;;5.30;99.90;;;;;;472396;252;28829;-81
2023/05/17 03:33:07;;;;;;;6.97;3.35;;;5.20;99.90;;;;;;472431;252;27562;-83
2023/05/17 03:35:08;;;;;;;7.12;3.55;;;5.20;99.90;;;;;;472353;252;27478;-82
2023/05/17 03:37:09;;;;;;;4.20;2.70;;;5.20;99.90;;;;;;472501;252;27499;-82
2023/05/17 03:39:10;;;;;;;4.37;2.70;;;5.10;99.90;;;;;;472455;252;27499;-83
2023/05/17 03:41:12;;;;;;;7.03;3.10;;;5.00;99.90;;;;;;472419;252;27481;-81
2023/05/17 03:43:13;;;;;;;4.15;3.05;;;5.00;99.90;;;;;;472421;252;28062;-85
2023/05/17 03:45:15;;;;;;;7.53;3.28;;;5.00;99.90;;;;;;472353;252;27486;-84
2023/05/17 03:47:15;;;;;;;3.80;3.10;;;4.90;99.90;;;;;;472358;252;27507;-82
2023/05/17 03:49:17;;;;;;;2.62;2.42;;;5.00;99.90;;;;;;472385;252;27493;-83
2023/05/17 03:51:18;;;;;;;8.65;2.80;;;5.00;99.90;;;;;;472400;252;27503;-83
2023/05/17 03:53:19;;;;;;;4.85;3.40;;;5.00;99.90;;;;;;472423;252;27496;-83
2023/05/17 03:55:20;;;;;;;2.90;2.60;;;5.10;99.90;;;;;;472377;252;27564;-83
2023/05/17 03:57:22;;;;;;;5.70;2.70;;;5.00;99.90;;;;;;472412;252;27620;-81
2023/05/17 03:59:23;;;;;;;5.03;3.08;;;5.00;99.90;;;;;;472376;252;27478;-83
2023/05/17 04:01:24;;;;;;;3.20;2.40;;;4.90;99.90;;;;;;472106;248;27530;-84
2023/05/17 04:03:26;;;;;;;4.85;2.75;;;4.90;99.90;;;;;;474421;249;27520;-82
2023/05/17 04:05:27;;;;;;;3.70;2.83;;;5.00;99.90;;;;;;469087;252;27903;-83
2023/05/17 04:07:28;;;;;;;5.00;2.30;;;5.10;99.90;;;;;;474421;251;27547;-81
2023/05/17 04:09:30;;;;;;;2.60;2.40;;;5.10;99.90;;;;;;469120;254;27490;-83
2023/05/17 04:11:31;;;;;;;3.58;2.50;;;5.10;99.90;;;;;;474387;250;27516;-79
2023/05/17 04:13:32;;;;;;;4.47;2.97;;;5.20;99.90;;;;;;469144;253;27439;-82
2023/05/17 04:15:33;;;;;;;4.80;3.00;;;5.20;99.90;;;;;;474434;249;27440;-83
2023/05/17 04:17:35;;;;;;;3.83;2.72;;;5.10;99.90;;;;;;469118;252;27436;-79
2023/05/17 04:19:36;;;;;;;4.95;3.05;;;5.10;99.90;;;;;;474410;251;27432;-81
2023/05/17 04:21:37;;;;;;;4.65;3.03;;;5.00;99.90;;;;;;469106;252;27450;-82
2023/05/17 04:23:38;;;;;;;3.65;3.00;;;5.10;99.90;;;;;;474436;246;27522;-83
2023/05/17 04:25:40;;;;;;;7.53;3.15;;;5.10;99.90;;;;;;469132;252;27565;-83
2023/05/17 04:27:41;;;;;;;5.30;3.30;;;5.20;99.90;;;;;;474405;250;27461;-80
2023/05/17 04:29:42;;;;;;;3.95;2.90;;;5.30;99.90;;;;;;474455;251;27500;-82
2023/05/17 04:31:45;;;;;;;10.10;3.60;;;5.40;99.90;;;;;;469126;252;27988;-83
2023/05/17 04:33:45;;;;;;;3.00;2.70;;;5.40;99.90;;;;;;474245;250;28725;-80
2023/05/17 04:35:46;;;;;;;6.30;2.90;;;5.50;99.90;;;;;;469098;254;27462;-83
2023/05/17 04:37:47;;;;;;;3.03;2.83;;;5.60;99.90;;;;;;474487;251;27444;-81
2023/05/17 04:39:48;;;;;;;4.70;2.93;;;5.70;99.90;;;;;;469213;252;27436;-81
2023/05/17 04:41:50;;;;;;;5.17;3.27;;;5.80;99.90;;;;;;474534;250;28072;-83
2023/05/17 04:43:51;;;;;;;4.50;3.13;;;5.90;99.90;;;;;;469251;253;28827;-79
2023/05/17 04:45:52;;;;;;;4.65;3.20;;;5.90;99.90;;;;;;474457;250;28160;-83
2023/05/17 04:47:54;;;;;;;4.82;2.87;;;5.90;99.90;;;;;;469137;254;27463;-83
2023/05/17 04:49:55;;;;;;;4.03;2.77;;;5.90;99.90;;;;;;474416;250;27429;-82
2023/05/17 04:51:56;;;;;;;5.80;2.60;;;5.90;99.90;;;;;;469121;252;28476;-81
2023/05/17 04:53:59;;;;;;;3.67;2.83;;;5.80;99.90;;;;;;474399;250;27428;-83
2023/05/17 04:55:58;;;;;;;4.12;2.90;;;5.70;99.90;;;;;;469008;252;27892;-81
2023/05/17 04:58:00;;;;;;;5.45;3.10;;;5.80;99.90;;;;;;474436;249;27520;-81
2023/05/17 05:00:01;;;;;;;7.70;3.33;;;5.80;99.90;;;;;;469231;252;27407;-82
2023/05/17 05:02:02;;;;;;;4.40;3.05;;;5.80;99.90;;;;;;474087;248;28926;-83
2023/05/17 05:04:05;;;;;;;4.85;2.92;;;5.90;99.90;;;;;;469423;254;27455;-81
2023/05/17 05:06:05;;;;;;;4.68;3.25;;;5.90;99.90;;;;;;469281;254;27447;-84
2023/05/17 05:08:06;;;;;;;7.95;3.40;;;6.00;99.90;;;;;;469354;252;27532;-82
2023/05/17 05:10:07;;;;;;;6.40;3.33;;;6.00;99.90;;;;;;469420;250;27439;-82
2023/05/17 05:12:08;;;;;;;7.30;3.10;;;6.10;99.90;;;;;;469378;254;28812;-82
2023/05/17 05:14:10;;;;;;;4.47;2.60;;;5.90;99.90;;;;;;469386;251;28941;-80
2023/05/17 05:16:11;;;;;;;7.78;3.20;;;6.00;99.90;;;;;;469354;252;27445;-82
2023/05/17 05:18:12;;;;;;;2.97;2.40;;;6.10;99.90;;;;;;469391;250;27439;-83
2023/05/17 05:20:14;;;;;;;3.77;3.13;;;6.20;99.90;;;;;;469354;251;28634;-84
2023/05/17 05:22:15;;;;;;;6.20;3.53;;;6.40;99.90;;;;;;469398;251;28030;-82
2023/05/17 05:24:16;;;;;;;8.23;3.73;;;6.40;99.90;;;;;;469380;253;27571;-81
2023/05/17 05:26:17;;;;;;;6.57;3.57;;;6.50;99.90;;;;;;469380;251;28857;-83
2023/05/17 05:28:18;;;;;;;7.17;2.90;;;6.50;99.90;;;;;;469399;252;27900;-81
2023/05/17 05:30:22;;;;;;;13.93;3.70;;;6.50;99.90;;;;;;469375;251;27921;-84
2023/05/17 05:32:24;;;;;;;7.00;3.03;;;6.60;99.90;;;;;;469408;254;27656;-84
2023/05/17 05:34:27;;;;;;;5.67;3.40;;;6.70;99.90;;;;;;469376;252;27804;-82
2023/05/17 05:36:26;;;;;;;5.00;3.93;;;6.80;99.90;;;;;;469307;254;27718;-79
2023/05/17 05:38:27;;;;;;;9.83;3.47;;;6.90;99.90;;;;;;469353;252;27922;-83
2023/05/17 05:40:29;;;;;;;7.47;4.00;;;7.10;99.90;;;;;;469363;250;27934;-83
2023/05/17 05:42:30;;;;;;;7.47;3.60;;;7.10;99.90;;;;;;469344;254;28053;-83
2023/05/17 05:44:31;;;;;;;6.03;3.50;;;7.10;99.90;;;;;;469371;250;27540;-82
2023/05/17 05:46:32;;;;;;;8.10;3.37;;;7.20;99.90;;;;;;469387;254;28027;-83
2023/05/17 05:48:38;;;;;;;10.40;4.07;;;7.30;99.90;;;;;;469447;252;27941;-82
2023/05/17 05:50:35;;;;;;;9.60;4.27;;;7.30;99.90;;;;;;469132;254;27576;-82
2023/05/17 05:52:36;;;;;;;10.03;3.97;;;7.30;99.90;;;;;;469374;252;27927;-82
2023/05/17 05:54:37;;;;;;;16.07;5.10;;;7.30;99.90;;;;;;469384;252;27870;-81
2023/05/17 05:56:39;;;;;;;8.10;5.07;;;7.30;99.90;;;;;;469353;251;27855;-81
2023/05/17 05:58:40;;;;;;;7.00;3.97;;;7.40;99.90;;;;;;469364;254;28102;-83
2023/05/17 06:00:41;;;;;;;12.10;4.37;;;7.40;99.90;;;;;;469362;251;27858;-81
2023/05/17 06:02:43;;;;;;;6.73;4.13;;;7.50;99.90;;;;;;469305;252;27975;-83
2023/05/17 06:04:44;;;;;;;12.47;5.00;;;7.50;99.90;;;;;;469057;253;28073;-83
2023/05/17 06:06:45;;;;;;;6.63;4.63;;;7.50;99.90;;;;;;469088;252;27928;-81
2023/05/17 06:08:46;;;;;;;7.20;4.33;;;7.50;99.90;;;;;;469094;254;28013;-84
2023/05/17 06:10:48;;;;;;;13.40;4.80;;;7.60;99.90;;;;;;469067;252;27900;-83
2023/05/17 06:12:49;;;;;;;6.93;4.40;;;7.70;99.90;;;;;;469105;254;28054;-81
2023/05/17 06:14:50;;;;;;;6.00;4.10;;;7.70;99.90;;;;;;469007;252;28047;-83
2023/05/17 06:16:51;;;;;;;8.60;4.30;;;7.80;99.90;;;;;;469053;252;28024;-83
2023/05/17 06:18:53;;;;;;;12.00;4.57;;;7.90;99.90;;;;;;469116;253;28121;-82
2023/05/17 06:20:54;;;;;;;9.80;4.87;;;7.90;99.90;;;;;;469176;254;27987;-81
2023/05/17 06:22:55;;;;;;;9.30;5.23;;;7.90;99.90;;;;;;469095;252;28182;-82
2023/05/17 06:24:56;;;;;;;9.93;5.00;;;7.90;99.90;;;;;;469020;252;28240;-81
2023/05/17 06:26:58;;;;;;;10.40;4.33;;;8.00;99.90;;;;;;469081;253;27997;-81
2023/05/17 06:28:59;;;;;;;10.03;4.40;;;8.10;99.90;;;;;;469099;252;28037;-83
2023/05/17 06:31:00;;;;;;;9.63;4.87;;;8.10;99.90;;;;;;469079;254;27928;-82
2023/05/17 06:33:02;;;;;;;8.70;4.10;;;8.20;99.90;;;;;;469166;252;28113;-81
2023/05/17 06:35:03;;;;;;;18.10;5.20;;;8.20;99.90;;;;;;469064;253;28024;-80
2023/05/17 06:37:04;;;;;;;7.70;4.83;;;8.30;99.90;;;;;;469119;252;28119;-82
2023/05/17 06:39:05;;;;;;;11.13;4.13;;;8.40;99.90;;;;;;469115;252;28181;-81
2023/05/17 06:41:06;;;;;;;9.93;4.53;;;8.40;99.90;;;;;;469076;252;27996;-80
2023/05/17 06:43:08;;;;;;;9.37;4.43;;;8.40;99.90;;;;;;469108;252;27994;-80
2023/05/17 06:45:09;;;;;;;10.67;4.63;;;8.70;99.90;;;;;;469131;251;27975;-81
2023/05/17 06:47:10;;;;;;;14.50;5.10;;;8.70;99.90;;;;;;469131;252;27940;-81
2023/05/17 06:49:11;;;;;;;8.80;4.40;;;8.70;99.90;;;;;;469068;252;28090;-83
2023/05/17 06:51:13;;;;;;;9.77;5.00;;;8.90;99.90;;;;;;469076;252;27876;-84
2023/05/17 06:53:14;;;;;;;6.57;4.17;;;9.10;99.90;;;;;;469109;252;28109;-80
2023/05/17 06:55:15;;;;;;;9.30;4.13;;;9.30;99.90;;;;;;469147;254;27994;-81
2023/05/17 06:57:16;;;;;;;9.00;3.80;;;9.50;99.90;;;;;;469200;252;27776;-82
2023/05/17 06:59:18;;;;;;;11.90;4.57;;;9.50;99.90;;;;;;469230;252;27898;-82
2023/05/17 07:01:19;;;;;;;11.20;4.77;;;9.30;99.90;;;;;;469201;251;28076;-81
2023/05/17 07:03:20;;;;;;;13.23;4.60;;;9.30;99.90;;;;;;469343;251;28045;-83
2023/05/17 07:05:23;;;;;;;8.90;4.90;;;9.30;99.90;;;;;;473171;252;28023;-82
2023/05/17 07:07:23;;;;;;;7.73;4.07;;;8.80;99.90;;;;;;473123;252;27772;-82
2023/05/17 07:09:24;;;;;;;13.50;4.37;;;8.80;99.90;;;;;;473147;252;27783;-84
2023/05/17 07:11:25;;;;;;;12.97;5.23;;;8.80;99.90;;;;;;473153;252;27897;-82
2023/05/17 07:13:26;;;;;;;10.50;4.67;;;8.70;99.90;;;;;;473139;252;27790;-80
2023/05/17 07:15:28;;;;;;;13.13;5.10;;;8.90;99.90;;;;;;473139;250;27910;-81
2023/05/17 07:17:29;;;;;;;6.43;4.60;;;8.80;99.90;;;;;;473154;252;27925;-82
2023/05/17 07:19:30;;;;;;;9.43;4.70;;;9.10;99.90;;;;;;473225;250;27758;-81
2023/05/17 07:21:31;;;;;;;9.77;4.87;;;9.20;99.90;;;;;;473177;252;27904;-83
2023/05/17 07:23:33;;;;;;;10.20;4.43;;;9.10;99.90;;;;;;473237;252;27890;-79
2023/05/17 07:25:37;;;;;;;6.97;4.27;;;9.10;99.90;;;;;;473184;252;27749;-81
2023/05/17 07:27:35;;;;;;;8.10;4.10;;;8.90;99.90;;;;;;473013;252;27841;-81
2023/05/17 07:29:36;;;;;;;7.43;4.30;;;8.80;99.90;;;;;;473112;252;27493;-81
2023/05/17 07:31:38;;;;;;;8.47;4.60;;;9.00;99.90;;;;;;473133;252;27694;-82
2023/05/17 07:33:39;;;;;;;11.17;3.70;;;9.20;99.90;;;;;;473206;252;27746;-81
2023/05/17 07:35:40;;;;;;;11.10;4.90;;;9.50;99.90;;;;;;473201;252;27913;-81
2023/05/17 07:37:41;;;;;;;9.73;4.57;;;9.70;99.90;;;;;;473249;252;27735;-81
2023/05/17 07:39:43;;;;;;;11.07;4.10;;;9.70;99.90;;;;;;473280;252;28025;-80
2023/05/17 07:41:44;;;;;;;8.73;4.57;;;9.70;99.90;;;;;;473274;252;27912;-79
2023/05/17 07:43:45;;;;;;;10.50;4.43;;;9.80;99.90;;;;;;473254;252;27973;-78
2023/05/17 07:45:46;;;;;;;7.70;3.93;;;10.10;99.90;;;;;;473221;251;27950;-79
2023/05/17 07:47:48;;;;;;;8.53;4.80;;;10.20;99.90;;;;;;473229;252;28193;-84
2023/05/17 07:49:49;;;;;;;7.97;4.20;;;10.00;99.90;;;;;;473242;252;28002;-82
2023/05/17 07:51:51;;;;;;;12.17;4.40;;;10.20;99.90;;;;;;473223;252;28181;-82
2023/05/17 07:53:51;;;;;;;7.37;4.33;;;10.20;99.90;;;;;;473269;252;28219;-80
2023/05/17 07:55:53;;;;;;;8.87;4.60;;;10.00;99.90;;;;;;473214;252;28162;-80
2023/05/17 07:57:54;;;;;;;6.87;4.07;;;10.20;99.90;;;;;;473247;251;28116;-79
2023/05/17 07:59:55;;;;;;;9.03;4.10;;;10.50;99.90;;;;;;473272;252;28322;-80
2023/05/17 08:01:56;;;;;;;9.67;3.97;;;10.70;99.90;;;;;;473199;252;28345;-81
2023/05/17 08:03:58;;;;;;;9.37;4.27;;;10.60;99.90;;;;;;473230;252;28365;-81
2023/05/17 08:05:59;;;;;;;11.00;3.60;;;10.00;99.90;;;;;;473208;252;28851;-79
2023/05/17 08:08:00;;;;;;;10.10;3.80;;;10.50;99.90;;;;;;473290;252;28568;-82
2023/05/17 08:10:01;;;;;;;11.87;4.30;;;10.70;99.90;;;;;;472702;247;28342;-82
2023/05/17 08:12:03;;;;;;;4.93;3.73;;;10.60;99.90;;;;;;478996;246;28529;-79
2023/05/17 08:14:05;;;;;;;8.63;4.47;;;;;;;;;;478999;247;28111;-85
2023/05/17 08:16:08;;;;;;;7.37;3.40;;;9.70;99.90;;;;;;479481;247;27143;-80
2023/05/17 08:18:08;;;;;;;13.00;3.90;;;9.70;99.90;;;;;;479481;247;28583;-81
2023/05/17 08:20:09;;;;;;;4.90;3.40;;;9.90;99.90;;;;;;479532;247;28212;-80
2023/05/17 08:22:10;;;;;;;8.80;3.90;;;10.10;99.90;;;;;;479571;247;28072;-79
2023/05/17 08:24:11;;;;;;;5.13;3.70;;;10.10;99.90;;;;;;479530;246;27958;-82
2023/05/17 08:26:13;;;;;;;12.10;4.47;;;9.80;99.90;;;;;;495169;239;28174;-83
2023/05/17 08:28:14;;;;;;;5.17;3.60;;;9.90;99.90;;;;;;495993;237;28070;-83
2023/05/17 08:30:16;;;;;;;12.03;4.60;;;;;;;;;;496217;240;28114;-82
2023/05/17 08:32:17;;;;;;;12.23;4.97;;;10.00;99.90;;;;;;477555;238;27111;-81
2023/05/17 08:34:19;;;;;;;9.80;4.00;;;10.10;99.90;;;;;;486463;244;28120;-83
2023/05/17 08:36:20;;;;;;;9.90;3.50;;;10.00;99.90;;;;;;486232;241;28257;-82
2023/05/17 08:38:21;;;;;;;6.73;3.47;;;9.80;99.90;;;;;;482280;233;28098;-81
2023/05/17 08:40:24;;;;;;;11.67;4.43;;;;;;;;;;476222;244;27970;-82
2023/05/17 08:42:25;;;;;;;10.43;4.07;;;10.10;99.90;;;;;;476205;247;27223;-81
2023/05/17 08:44:27;;;;;;;9.00;3.67;;;10.00;99.90;;;;;;489002;235;28686;-79
2023/05/17 08:46:27;;;;;;;8.47;4.03;;;10.10;99.90;;;;;;487934;237;29560;-80
2023/05/17 08:48:35;;;;;;;7.10;3.73;;;10.20;99.90;;;;;;480155;246;28537;-80
2023/05/17 08:50:30;;;;;;;10.60;4.17;;;10.40;99.90;;;;;;479877;245;28146;-82
2023/05/17 08:52:31;;;;;;;7.47;4.30;;;10.50;99.90;;;;;;480207;246;28114;-80
2023/05/17 08:54:32;;;;;;;8.27;3.60;;;10.60;99.90;;;;;;480142;246;28447;-82
2023/05/17 08:56:34;;;;;;;7.10;3.67;;;10.70;99.90;;;;;;480087;248;28094;-81
2023/05/17 08:58:36;;;;;;;5.77;3.57;;;;;;;;;;480005;248;28256;-85
2023/05/17 09:00:37;;;;;;;7.67;4.23;;;11.30;99.90;;;;;;479943;248;27949;-83
2023/05/17 09:02:39;;;;;;;9.87;3.70;;;11.10;99.90;;;;;;480031;246;28039;-84
2023/05/17 09:04:40;;;;;;;5.20;3.30;;;11.20;99.90;;;;;;479842;248;28230;-83
2023/05/17 09:06:43;;;;;;;6.83;3.63;;;11.10;99.90;;;;;;480145;246;28050;-82
2023/05/17 09:08:43;;;;;;;7.47;3.53;;;11.10;99.90;;;;;;481335;235;28387;-82
2023/05/17 09:10:44;;;;;;;7.27;3.40;;;11.10;99.90;;;;;;474685;250;28219;-82
2023/05/17 09:12:45;;;;;;;12.87;4.20;;;11.00;99.90;;;;;;480078;239;28204;-79
2023/05/17 09:14:47;;;;;;;8.07;3.57;;;10.80;99.90;;;;;;498357;237;28144;-80
2023/05/17 09:16:48;;;;;;;5.50;3.40;;;10.70;99.90;;;;;;498372;237;28040;-80
2023/05/17 09:18:49;;;;;;;6.90;3.10;;;10.70;99.90;;;;;;491096;236;28492;-81
2023/05/17 09:20:51;;;;;;;10.83;3.47;;;10.70;99.90;;;;;;483055;240;28393;-80
2023/05/17 09:22:52;;;;;;;9.53;4.40;;;10.70;99.90;;;;;;485533;245;28550;-80
2023/05/17 09:24:53;;;;;;;7.40;3.40;;;10.80;99.90;;;;;;485474;241;28554;-83
2023/05/17 09:26:54;;;;;;;6.43;3.30;;;10.70;99.90;;;;;;485538;241;28770;-81
2023/05/17 09:28:56;;;;;;;5.53;3.30;;;10.70;99.90;;;;;;485539;245;28226;-82
2023/05/17 09:30:57;;;;;;;6.10;3.53;;;10.90;99.90;;;;;;485588;241;28050;-79
2023/05/17 09:32:58;;;;;;;9.23;3.23;;;10.70;99.90;;;;;;485341;238;28167;-84
2023/05/17 09:37:10;;;;;;;8.63;4.07;;;10.60;99.90;;;;;;476702;241;27585;-82
2023/05/17 09:39:11;;;;;;;8.67;3.10;;;10.40;99.90;;;;;;471740;250;28222;-83
2023/05/17 09:41:12;;;;;;;6.40;3.23;;;10.50;99.90;;;;;;479480;236;28331;-81
2023/05/17 09:43:13;;;;;;;4.30;2.90;;;10.50;99.90;;;;;;481489;246;28331;-81
2023/05/17 09:45:15;;;;;;;7.60;3.10;;;10.70;99.90;;;;;;481440;246;28592;-80
2023/05/17 09:47:16;;;;;;;6.40;3.70;;;10.50;99.90;;;;;;481427;246;28922;-80
2023/05/17 09:49:17;;;;;;;9.83;3.17;;;10.60;99.90;;;;;;481487;244;28003;-79
2023/05/17 09:51:18;;;;;;;6.63;2.60;;;10.80;99.90;;;;;;481459;241;28375;-80
2023/05/17 09:53:20;;;;;;;8.30;2.97;;;10.90;99.90;;;;;;481447;244;27941;-81
2023/05/17 09:55:26;;;;;;;6.93;2.83;;;11.10;99.90;;;;;;481385;248;27879;-80
2023/05/17 09:57:22;;;;;;;7.07;3.20;;;10.70;99.90;;;;;;481211;246;28447;-82
2023/05/17 09:59:23;;;;;;;5.30;2.97;;;11.00;99.90;;;;;;481476;246;28479;-83
2023/05/17 10:01:25;;;;;;;7.37;3.07;;;11.20;99.90;;;;;;481325;248;28250;-84
2023/05/17 10:03:26;;;;;;;4.57;2.97;;;11.40;99.90;;;;;;481248;248;27992;-82
2023/05/17 10:05:27;;;;;;;5.67;2.97;;;11.50;99.90;;;;;;481107;248;28542;-84
2023/05/17 10:07:29;;;;;;;4.20;2.90;;;11.80;99.90;;;;;;481040;248;28347;-84
2023/05/17 10:09:33;;;;;;;5.73;2.93;;;12.10;99.90;;;;;;480814;248;28742;-85
2023/05/17 10:11:34;;;;;;;5.37;2.57;;;11.80;99.50;;;;;;480597;248;28809;-86
2023/05/17 10:13:35;;;;;;;11.57;3.03;;;11.80;99.50;;;;;;480885;248;28139;-85
2023/05/17 10:15:37;;;;;;;4.20;2.70;;;11.70;99.70;;;;;;480811;248;28410;-85
2023/05/17 10:17:40;;;;;;;6.27;2.90;;;11.80;99.40;;;;;;480971;248;28139;-83
2023/05/17 10:19:39;;;;;;;4.60;3.10;;;11.30;97.50;;;;;;481060;248;28130;-84
2023/05/17 10:21:41;;;;;;;6.70;3.33;;;11.30;99.40;;;;;;481133;248;28704;-84
2023/05/17 10:23:42;;;;;;;5.60;2.83;;;11.70;98.30;;;;;;480900;248;28588;-85
2023/05/17 10:25:42;;;;;;;6.77;2.70;;;12.20;96.90;;;;;;480724;246;28518;-85
2023/05/17 10:27:44;;;;;;;6.63;3.43;;;12.40;96.50;;;;;;480672;248;28133;-83
2023/05/17 10:29:45;;;;;;;8.67;3.20;;;12.20;95.20;;;;;;480800;248;28375;-82
2023/05/17 10:31:46;;;;;;;6.50;2.80;;;11.70;95.10;;;;;;480967;248;28340;-83
2023/05/17 10:33:50;;;;;;;16.60;3.83;;;;;;;;;;481095;248;28224;-88
2023/05/17 10:35:50;;;;;;;11.43;4.03;;;11.40;96.80;;;;;;481174;248;27171;-81
2023/05/17 10:37:51;;;;;;;4.97;3.10;;;11.60;96.70;;;;;;481277;248;28609;-82
2023/05/17 10:39:55;;;;;;;10.70;3.50;;;11.00;95.70;;;;;;481376;248;28105;-82